sensor_id;sensor_type;location;lat;lon;timestamp;temperature;humidity
59307;DHT22;47983;53.016;-2.260;2023-04-12T00:01:43;5.10;99.90
59307;DHT22;47983;53.016;-2.260;2023-04-12T00:04:12;5.10;99.90
59307;DHT22;47983;53.016;-2.260;2023-04-12T00:06:42;5.00;99.90
59307;DHT22;47983;53.016;-2.260;2023-04-12T00:09:15;5.00;99.90
59307;DHT22;47983;53.016;-2.260;2023-04-12T00:11:42;4.90;99.90
59307;DHT22;47983;53.016;-2.260;2023-04-12T00:14:10;4.80;99.90
59307;DHT22;47983;53.016;-2.260;2023-04-12T00:16:38;4.80;99.90
59307;DHT22;47983;53.016;-2.260;2023-04-12T00:19:05;4.80;99.90
59307;DHT22;47983;53.016;-2.260;2023-04-12T00:21:33;4.70;99.90
59307;DHT22;47983;53.016;-2.260;2023-04-12T00:24:01;4.70;99.90
59307;DHT22;47983;53.016;-2.260;2023-04-12T00:26:28;4.70;99.90
59307;DHT22;47983;53.016;-2.260;2023-04-12T00:28:58;4.60;99.90
59307;DHT22;47983;53.016;-2.260;2023-04-12T00:31:26;4.60;99.90
59307;DHT22;47983;53.016;-2.260;2023-04-12T00:33:53;4.60;99.90
59307;DHT22;47983;53.016;-2.260;2023-04-12T00:36:22;4.60;99.90
59307;DHT22;47983;53.016;-2.260;2023-04-12T00:38:49;4.60;99.90
59307;DHT22;47983;53.016;-2.260;2023-04-12T00:41:17;4.60;99.90
59307;DHT22;47983;53.016;-2.260;2023-04-12T00:43:44;4.70;99.90
59307;DHT22;47983;53.016;-2.260;2023-04-12T00:46:13;4.70;99.90
59307;DHT22;47983;53.016;-2.260;2023-04-12T00:48:44;4.70;99.90
59307;DHT22;47983;53.016;-2.260;2023-04-12T00:51:14;4.70;99.90
59307;DHT22;47983;53.016;-2.260;2023-04-12T00:53:44;4.70;99.90
59307;DHT22;47983;53.016;-2.260;2023-04-12T00:56:12;4.80;99.90
59307;DHT22;47983;53.016;-2.260;2023-04-12T00:58:40;4.70;99.90
59307;DHT22;47983;53.016;-2.260;2023-04-12T01:01:08;4.70;99.90
59307;DHT22;47983;53.016;-2.260;2023-04-12T01:03:39;4.60;99.90
59307;DHT22;47983;53.016;-2.260;2023-04-12T01:17:37;4.50;99.90
59307;DHT22;47983;53.016;-2.260;2023-04-12T01:20:10;4.40;99.90
59307;DHT22;47983;53.016;-2.260;2023-04-12T01:28:11;4.30;99.90
59307;DHT22;47983;53.016;-2.260;2023-04-12T01:30:41;4.30;99.90
59307;DHT22;47983;53.016;-2.260;2023-04-12T01:33:11;4.30;99.90
59307;DHT22;47983;53.016;-2.260;2023-04-12T01:35:39;4.30;99.90
59307;DHT22;47983;53.016;-2.260;2023-04-12T01:38:08;4.20;99.90
59307;DHT22;47983;53.016;-2.260;2023-04-12T01:40:37;4.20;99.90
59307;DHT22;47983;53.016;-2.260;2023-04-12T01:43:11;4.30;99.90
59307;DHT22;47983;53.016;-2.260;2023-04-12T01:45:40;4.20;99.90
59307;DHT22;47983;53.016;-2.260;2023-04-12T01:48:09;4.20;99.90
59307;DHT22;47983;53.016;-2.260;2023-04-12T01:50:43;4.20;99.90
59307;DHT22;47983;53.016;-2.260;2023-04-12T01:53:22;4.20;99.90
59307;DHT22;47983;53.016;-2.260;2023-04-12T01:55:56;4.20;99.90
59307;DHT22;47983;53.016;-2.260;2023-04-12T01:58:28;4.20;99.90
59307;DHT22;47983;53.016;-2.260;2023-04-12T02:00:58;4.20;99.90
59307;DHT22;47983;53.016;-2.260;2023-04-12T02:03:28;4.20;99.90
59307;DHT22;47983;53.016;-2.260;2023-04-12T02:06:01;4.10;99.90
59307;DHT22;47983;53.016;-2.260;2023-04-12T02:08:29;4.10;99.90
59307;DHT22;47983;53.016;-2.260;2023-04-12T02:10:57;4.10;99.90
59307;DHT22;47983;53.016;-2.260;2023-04-12T02:13:27;4.10;99.90
59307;DHT22;47983;53.016;-2.260;2023-04-12T02:15:56;4.00;99.90
59307;DHT22;47983;53.016;-2.260;2023-04-12T02:18:25;4.00;99.90
59307;DHT22;47983;53.016;-2.260;2023-04-12T02:20:57;4.00;99.90
59307;DHT22;47983;53.016;-2.260;2023-04-12T02:23:25;4.00;99.90
59307;DHT22;47983;53.016;-2.260;2023-04-12T02:25:52;4.00;99.90
59307;DHT22;47983;53.016;-2.260;2023-04-12T02:28:20;3.90;99.90
59307;DHT22;47983;53.016;-2.260;2023-04-12T02:30:49;3.90;99.90
59307;DHT22;47983;53.016;-2.260;2023-04-12T02:33:21;3.90;99.90
59307;DHT22;47983;53.016;-2.260;2023-04-12T02:35:53;3.90;99.90
59307;DHT22;47983;53.016;-2.260;2023-04-12T02:38:24;3.80;99.90
59307;DHT22;47983;53.016;-2.260;2023-04-12T02:40:51;3.90;99.90
59307;DHT22;47983;53.016;-2.260;2023-04-12T02:43:19;3.80;99.90
59307;DHT22;47983;53.016;-2.260;2023-04-12T02:45:55;3.80;99.90
59307;DHT22;47983;53.016;-2.260;2023-04-12T02:48:23;3.80;99.90
59307;DHT22;47983;53.016;-2.260;2023-04-12T02:50:51;3.80;99.90
59307;DHT22;47983;53.016;-2.260;2023-04-12T02:53:22;3.70;99.90
59307;DHT22;47983;53.016;-2.260;2023-04-12T02:56:05;3.80;99.90
59307;DHT22;47983;53.016;-2.260;2023-04-12T02:58:33;3.80;99.90
59307;DHT22;47983;53.016;-2.260;2023-04-12T03:01:02;3.80;99.90
59307;DHT22;47983;53.016;-2.260;2023-04-12T03:03:52;3.80;99.90
59307;DHT22;47983;53.016;-2.260;2023-04-12T03:06:35;3.80;99.90
59307;DHT22;47983;53.016;-2.260;2023-04-12T03:09:03;3.80;99.90
59307;DHT22;47983;53.016;-2.260;2023-04-12T03:11:31;3.70;99.90
59307;DHT22;47983;53.016;-2.260;2023-04-12T03:13:59;3.80;99.90
59307;DHT22;47983;53.016;-2.260;2023-04-12T03:16:27;3.80;99.90
59307;DHT22;47983;53.016;-2.260;2023-04-12T03:19:07;3.70;99.90
59307;DHT22;47983;53.016;-2.260;2023-04-12T03:21:35;3.80;99.90
59307;DHT22;47983;53.016;-2.260;2023-04-12T03:24:04;3.80;99.90
59307;DHT22;47983;53.016;-2.260;2023-04-12T03:26:34;3.70;99.90
59307;DHT22;47983;53.016;-2.260;2023-04-12T03:29:11;3.70;99.90
59307;DHT22;47983;53.016;-2.260;2023-04-12T03:31:41;3.80;99.90
59307;DHT22;47983;53.016;-2.260;2023-04-12T03:34:09;3.80;99.90
59307;DHT22;47983;53.016;-2.260;2023-04-12T03:36:41;3.90;99.90
59307;DHT22;47983;53.016;-2.260;2023-04-12T03:39:24;3.90;99.90
59307;DHT22;47983;53.016;-2.260;2023-04-12T03:41:53;3.90;99.90
59307;DHT22;47983;53.016;-2.260;2023-04-12T03:44:26;3.90;99.90
59307;DHT22;47983;53.016;-2.260;2023-04-12T03:46:57;3.90;99.90
59307;DHT22;47983;53.016;-2.260;2023-04-12T03:49:29;3.80;99.90
59307;DHT22;47983;53.016;-2.260;2023-04-12T03:51:57;3.80;99.90
59307;DHT22;47983;53.016;-2.260;2023-04-12T03:54:25;3.80;99.90
59307;DHT22;47983;53.016;-2.260;2023-04-12T03:56:58;3.70;99.90
59307;DHT22;47983;53.016;-2.260;2023-04-12T03:59:31;3.60;99.90
59307;DHT22;47983;53.016;-2.260;2023-04-12T04:02:02;3.60;99.90
59307;DHT22;47983;53.016;-2.260;2023-04-12T04:04:32;3.60;99.90
59307;DHT22;47983;53.016;-2.260;2023-04-12T04:07:09;3.40;99.90
59307;DHT22;47983;53.016;-2.260;2023-04-12T04:09:43;3.40;99.90
59307;DHT22;47983;53.016;-2.260;2023-04-12T04:12:11;3.30;99.90
59307;DHT22;47983;53.016;-2.260;2023-04-12T04:14:44;3.30;99.90
59307;DHT22;47983;53.016;-2.260;2023-04-12T04:17:18;3.30;99.90
59307;DHT22;47983;53.016;-2.260;2023-04-12T04:19:47;3.20;99.90
59307;DHT22;47983;53.016;-2.260;2023-04-12T04:22:17;3.30;99.90
59307;DHT22;47983;53.016;-2.260;2023-04-12T04:24:50;3.20;99.90
59307;DHT22;47983;53.016;-2.260;2023-04-12T04:27:19;3.20;99.90
59307;DHT22;47983;53.016;-2.260;2023-04-12T04:29:48;3.20;99.90
59307;DHT22;47983;53.016;-2.260;2023-04-12T04:32:17;3.20;99.90
59307;DHT22;47983;53.016;-2.260;2023-04-12T04:34:45;3.10;99.90
59307;DHT22;47983;53.016;-2.260;2023-04-12T04:37:16;3.10;99.90
59307;DHT22;47983;53.016;-2.260;2023-04-12T04:39:47;3.10;99.90
59307;DHT22;47983;53.016;-2.260;2023-04-12T04:42:15;3.00;99.90
59307;DHT22;47983;53.016;-2.260;2023-04-12T04:44:57;3.00;99.90
59307;DHT22;47983;53.016;-2.260;2023-04-12T04:47:40;3.00;99.90
59307;DHT22;47983;53.016;-2.260;2023-04-12T04:50:08;3.00;99.90
59307;DHT22;47983;53.016;-2.260;2023-04-12T04:52:39;3.00;99.90
59307;DHT22;47983;53.016;-2.260;2023-04-12T04:55:12;3.00;99.90
59307;DHT22;47983;53.016;-2.260;2023-04-12T04:57:46;3.00;99.90
59307;DHT22;47983;53.016;-2.260;2023-04-12T05:00:18;2.90;99.90
59307;DHT22;47983;53.016;-2.260;2023-04-12T05:02:52;2.90;99.90
59307;DHT22;47983;53.016;-2.260;2023-04-12T05:05:28;2.90;99.90
59307;DHT22;47983;53.016;-2.260;2023-04-12T05:08:07;2.90;99.90
59307;DHT22;47983;53.016;-2.260;2023-04-12T05:10:35;2.90;99.90
59307;DHT22;47983;53.016;-2.260;2023-04-12T05:13:03;2.90;99.90
59307;DHT22;47983;53.016;-2.260;2023-04-12T05:15:31;2.90;99.90
59307;DHT22;47983;53.016;-2.260;2023-04-12T05:17:59;3.00;99.90
59307;DHT22;47983;53.016;-2.260;2023-04-12T05:20:30;2.90;99.90
59307;DHT22;47983;53.016;-2.260;2023-04-12T05:23:03;3.00;99.90
59307;DHT22;47983;53.016;-2.260;2023-04-12T05:25:42;3.00;99.90
59307;DHT22;47983;53.016;-2.260;2023-04-12T05:28:10;2.80;99.90
59307;DHT22;47983;53.016;-2.260;2023-04-12T05:30:41;3.10;99.90
59307;DHT22;47983;53.016;-2.260;2023-04-12T05:33:14;3.10;99.90
59307;DHT22;47983;53.016;-2.260;2023-04-12T05:35:45;2.90;99.90
59307;DHT22;47983;53.016;-2.260;2023-04-12T05:38:13;3.10;99.90
59307;DHT22;47983;53.016;-2.260;2023-04-12T05:40:42;3.00;99.90
59307;DHT22;47983;53.016;-2.260;2023-04-12T05:43:17;3.00;99.90
59307;DHT22;47983;53.016;-2.260;2023-04-12T05:45:49;3.00;99.90
59307;DHT22;47983;53.016;-2.260;2023-04-12T05:48:21;3.00;99.90
59307;DHT22;47983;53.016;-2.260;2023-04-12T05:50:50;2.90;99.90
59307;DHT22;47983;53.016;-2.260;2023-04-12T05:53:19;3.00;99.90
59307;DHT22;47983;53.016;-2.260;2023-04-12T05:55:47;2.90;99.90
59307;DHT22;47983;53.016;-2.260;2023-04-12T05:58:17;3.00;99.90
59307;DHT22;47983;53.016;-2.260;2023-04-12T06:00:45;3.00;99.90
59307;DHT22;47983;53.016;-2.260;2023-04-12T06:03:13;6.10;99.90
59307;DHT22;47983;53.016;-2.260;2023-04-12T06:05:41;3.10;99.90
59307;DHT22;47983;53.016;-2.260;2023-04-12T06:08:09;3.10;99.90
59307;DHT22;47983;53.016;-2.260;2023-04-12T06:10:41;3.10;99.90
59307;DHT22;47983;53.016;-2.260;2023-04-12T06:13:08;3.10;99.90
59307;DHT22;47983;53.016;-2.260;2023-04-12T06:15:41;3.20;99.90
59307;DHT22;47983;53.016;-2.260;2023-04-12T06:18:09;3.20;99.90
59307;DHT22;47983;53.016;-2.260;2023-04-12T06:20:39;3.20;99.90
59307;DHT22;47983;53.016;-2.260;2023-04-12T06:23:07;3.20;99.90
59307;DHT22;47983;53.016;-2.260;2023-04-12T06:25:35;3.20;99.90
59307;DHT22;47983;53.016;-2.260;2023-04-12T06:30:39;3.40;99.90
59307;DHT22;47983;53.016;-2.260;2023-04-12T06:33:07;3.30;99.90
59307;DHT22;47983;53.016;-2.260;2023-04-12T06:35:35;3.50;99.90
59307;DHT22;47983;53.016;-2.260;2023-04-12T06:38:04;3.40;99.90
59307;DHT22;47983;53.016;-2.260;2023-04-12T06:40:33;3.40;99.90
59307;DHT22;47983;53.016;-2.260;2023-04-12T06:43:01;3.40;99.90
59307;DHT22;47983;53.016;-2.260;2023-04-12T06:45:28;3.50;99.90
59307;DHT22;47983;53.016;-2.260;2023-04-12T06:47:56;3.50;99.90
59307;DHT22;47983;53.016;-2.260;2023-04-12T06:50:25;3.50;99.90
59307;DHT22;47983;53.016;-2.260;2023-04-12T06:52:53;3.60;99.90
59307;DHT22;47983;53.016;-2.260;2023-04-12T06:55:20;3.60;99.90
59307;DHT22;47983;53.016;-2.260;2023-04-12T06:57:48;3.60;99.90
59307;DHT22;47983;53.016;-2.260;2023-04-12T07:00:18;3.70;99.90
59307;DHT22;47983;53.016;-2.260;2023-04-12T07:02:46;3.70;99.90
59307;DHT22;47983;53.016;-2.260;2023-04-12T07:05:14;3.90;99.90
59307;DHT22;47983;53.016;-2.260;2023-04-12T07:07:44;3.80;99.90
59307;DHT22;47983;53.016;-2.260;2023-04-12T07:10:11;3.90;99.90
59307;DHT22;47983;53.016;-2.260;2023-04-12T07:12:39;4.10;99.90
59307;DHT22;47983;53.016;-2.260;2023-04-12T07:15:08;4.20;99.90
59307;DHT22;47983;53.016;-2.260;2023-04-12T07:17:36;4.20;99.90
59307;DHT22;47983;53.016;-2.260;2023-04-12T07:20:04;4.30;99.90
59307;DHT22;47983;53.016;-2.260;2023-04-12T07:22:32;4.40;99.90
59307;DHT22;47983;53.016;-2.260;2023-04-12T07:24:59;4.40;99.90
59307;DHT22;47983;53.016;-2.260;2023-04-12T07:27:27;4.40;99.90
59307;DHT22;47983;53.016;-2.260;2023-04-12T07:29:54;4.40;99.90
59307;DHT22;47983;53.016;-2.260;2023-04-12T07:32:22;4.40;99.90
59307;DHT22;47983;53.016;-2.260;2023-04-12T07:34:50;4.50;99.90
59307;DHT22;47983;53.016;-2.260;2023-04-12T07:37:17;4.40;99.90
59307;DHT22;47983;53.016;-2.260;2023-04-12T07:39:45;4.40;99.90
59307;DHT22;47983;53.016;-2.260;2023-04-12T07:42:13;4.50;99.90
59307;DHT22;47983;53.016;-2.260;2023-04-12T07:44:40;4.60;99.90
59307;DHT22;47983;53.016;-2.260;2023-04-12T07:47:08;4.60;99.90
59307;DHT22;47983;53.016;-2.260;2023-04-12T07:49:35;4.60;99.90
59307;DHT22;47983;53.016;-2.260;2023-04-12T07:52:03;4.60;99.90
59307;DHT22;47983;53.016;-2.260;2023-04-12T07:54:31;4.60;99.90
59307;DHT22;47983;53.016;-2.260;2023-04-12T07:57:01;4.70;99.90
59307;DHT22;47983;53.016;-2.260;2023-04-12T07:59:32;4.70;99.90
59307;DHT22;47983;53.016;-2.260;2023-04-12T08:02:02;4.70;99.90
59307;DHT22;47983;53.016;-2.260;2023-04-12T08:04:32;4.80;99.90
59307;DHT22;47983;53.016;-2.260;2023-04-12T08:06:59;5.00;99.90
59307;DHT22;47983;53.016;-2.260;2023-04-12T08:09:27;4.90;99.90
59307;DHT22;47983;53.016;-2.260;2023-04-12T08:11:55;4.80;99.90
59307;DHT22;47983;53.016;-2.260;2023-04-12T08:14:25;5.10;99.90
59307;DHT22;47983;53.016;-2.260;2023-04-12T08:16:52;5.10;99.90
59307;DHT22;47983;53.016;-2.260;2023-04-12T08:19:20;5.20;99.90
59307;DHT22;47983;53.016;-2.260;2023-04-12T08:21:48;5.30;99.90
59307;DHT22;47983;53.016;-2.260;2023-04-12T08:24:16;5.40;99.90
59307;DHT22;47983;53.016;-2.260;2023-04-12T08:26:43;5.50;99.90
59307;DHT22;47983;53.016;-2.260;2023-04-12T08:29:11;5.60;99.90
59307;DHT22;47983;53.016;-2.260;2023-04-12T08:31:39;5.80;99.90
59307;DHT22;47983;53.016;-2.260;2023-04-12T08:34:06;5.90;99.90
59307;DHT22;47983;53.016;-2.260;2023-04-12T08:36:35;5.90;99.90
59307;DHT22;47983;53.016;-2.260;2023-04-12T08:39:02;5.90;99.90
59307;DHT22;47983;53.016;-2.260;2023-04-12T08:41:32;6.00;99.90
59307;DHT22;47983;53.016;-2.260;2023-04-12T08:44:00;6.10;99.90
59307;DHT22;47983;53.016;-2.260;2023-04-12T08:46:28;6.20;99.90
59307;DHT22;47983;53.016;-2.260;2023-04-12T08:48:56;6.30;99.90
59307;DHT22;47983;53.016;-2.260;2023-04-12T08:51:25;6.40;99.90
59307;DHT22;47983;53.016;-2.260;2023-04-12T08:53:53;6.50;99.90
59307;DHT22;47983;53.016;-2.260;2023-04-12T08:56:21;6.50;99.90
59307;DHT22;47983;53.016;-2.260;2023-04-12T08:58:50;6.50;99.90
59307;DHT22;47983;53.016;-2.260;2023-04-12T09:01:20;6.50;99.90
59307;DHT22;47983;53.016;-2.260;2023-04-12T09:03:49;6.50;99.90
59307;DHT22;47983;53.016;-2.260;2023-04-12T09:06:17;6.60;99.90
59307;DHT22;47983;53.016;-2.260;2023-04-12T09:08:54;6.60;99.90
59307;DHT22;47983;53.016;-2.260;2023-04-12T09:11:27;6.70;99.90
59307;DHT22;47983;53.016;-2.260;2023-04-12T09:13:55;6.70;99.90
59307;DHT22;47983;53.016;-2.260;2023-04-12T09:16:38;6.70;99.90
59307;DHT22;47983;53.016;-2.260;2023-04-12T09:19:07;6.70;99.90
59307;DHT22;47983;53.016;-2.260;2023-04-12T09:21:35;6.50;99.90
59307;DHT22;47983;53.016;-2.260;2023-04-12T09:24:07;6.50;99.90
59307;DHT22;47983;53.016;-2.260;2023-04-12T09:26:41;6.50;99.90
59307;DHT22;47983;53.016;-2.260;2023-04-12T09:29:24;6.40;99.90
59307;DHT22;47983;53.016;-2.260;2023-04-12T09:32:02;6.40;99.90
59307;DHT22;47983;53.016;-2.260;2023-04-12T09:34:32;6.30;99.90
59307;DHT22;47983;53.016;-2.260;2023-04-12T09:37:11;6.30;99.90
59307;DHT22;47983;53.016;-2.260;2023-04-12T09:39:39;6.40;99.90
59307;DHT22;47983;53.016;-2.260;2023-04-12T09:42:09;6.30;99.90
59307;DHT22;47983;53.016;-2.260;2023-04-12T09:44:57;6.30;99.90
59307;DHT22;47983;53.016;-2.260;2023-04-12T09:47:38;6.30;99.90
59307;DHT22;47983;53.016;-2.260;2023-04-12T09:50:07;6.30;99.90
59307;DHT22;47983;53.016;-2.260;2023-04-12T09:52:37;6.30;99.90
59307;DHT22;47983;53.016;-2.260;2023-04-12T09:55:08;6.30;99.90
59307;DHT22;47983;53.016;-2.260;2023-04-12T09:57:43;6.30;99.90
59307;DHT22;47983;53.016;-2.260;2023-04-12T10:00:12;6.40;99.90
59307;DHT22;47983;53.016;-2.260;2023-04-12T10:02:48;6.40;99.90
59307;DHT22;47983;53.016;-2.260;2023-04-12T10:05:20;7.70;99.90
59307;DHT22;47983;53.016;-2.260;2023-04-12T10:07:48;6.50;99.90
59307;DHT22;47983;53.016;-2.260;2023-04-12T10:10:17;6.50;99.90
59307;DHT22;47983;53.016;-2.260;2023-04-12T10:12:49;6.50;99.90
59307;DHT22;47983;53.016;-2.260;2023-04-12T10:15:17;6.50;99.90
59307;DHT22;47983;53.016;-2.260;2023-04-12T10:17:52;6.50;99.90
59307;DHT22;47983;53.016;-2.260;2023-04-12T10:20:21;6.50;99.90
59307;DHT22;47983;53.016;-2.260;2023-04-12T10:22:53;6.40;99.90
59307;DHT22;47983;53.016;-2.260;2023-04-12T10:25:23;6.30;99.90
59307;DHT22;47983;53.016;-2.260;2023-04-12T10:27:55;6.10;99.90
59307;DHT22;47983;53.016;-2.260;2023-04-12T10:30:28;7.60;99.90
59307;DHT22;47983;53.016;-2.260;2023-04-12T10:38:15;5.70;99.90
59307;DHT22;47983;53.016;-2.260;2023-04-12T10:41:15;5.60;99.90
59307;DHT22;47983;53.016;-2.260;2023-04-12T10:43:44;5.60;99.90
59307;DHT22;47983;53.016;-2.260;2023-04-12T10:49:14;5.80;99.90
59307;DHT22;47983;53.016;-2.260;2023-04-12T10:52:09;5.90;99.90
59307;DHT22;47983;53.016;-2.260;2023-04-12T10:54:38;6.00;99.90
59307;DHT22;47983;53.016;-2.260;2023-04-12T10:57:40;6.00;99.90
59307;DHT22;47983;53.016;-2.260;2023-04-12T11:00:09;6.00;99.90
59307;DHT22;47983;53.016;-2.260;2023-04-12T11:03:02;6.10;99.90
59307;DHT22;47983;53.016;-2.260;2023-04-12T11:05:59;6.10;99.90
59307;DHT22;47983;53.016;-2.260;2023-04-12T11:08:58;6.20;99.90
59307;DHT22;47983;53.016;-2.260;2023-04-12T11:11:26;6.30;99.90
59307;DHT22;47983;53.016;-2.260;2023-04-12T11:13:54;6.50;99.90
59307;DHT22;47983;53.016;-2.260;2023-04-12T11:16:23;6.60;99.90
59307;DHT22;47983;53.016;-2.260;2023-04-12T11:18:51;6.80;99.90
59307;DHT22;47983;53.016;-2.260;2023-04-12T11:21:20;6.90;99.90
59307;DHT22;47983;53.016;-2.260;2023-04-12T11:23:50;6.90;99.90
59307;DHT22;47983;53.016;-2.260;2023-04-12T11:26:19;7.00;99.90
59307;DHT22;47983;53.016;-2.260;2023-04-12T11:28:48;6.90;99.90
59307;DHT22;47983;53.016;-2.260;2023-04-12T11:31:19;6.90;99.90
59307;DHT22;47983;53.016;-2.260;2023-04-12T11:33:48;6.80;99.90
59307;DHT22;47983;53.016;-2.260;2023-04-12T11:36:16;6.70;99.90
59307;DHT22;47983;53.016;-2.260;2023-04-12T11:38:46;6.70;99.90
59307;DHT22;47983;53.016;-2.260;2023-04-12T11:41:13;4.50;99.90
59307;DHT22;47983;53.016;-2.260;2023-04-12T11:43:41;6.80;99.90
59307;DHT22;47983;53.016;-2.260;2023-04-12T11:46:09;7.00;99.90
59307;DHT22;47983;53.016;-2.260;2023-04-12T11:48:37;7.10;99.90
59307;DHT22;47983;53.016;-2.260;2023-04-12T11:51:22;7.00;99.90
59307;DHT22;47983;53.016;-2.260;2023-04-12T11:53:59;7.00;99.90
59307;DHT22;47983;53.016;-2.260;2023-04-12T11:56:30;7.00;99.90
59307;DHT22;47983;53.016;-2.260;2023-04-12T11:59:02;7.10;99.90
59307;DHT22;47983;53.016;-2.260;2023-04-12T12:01:29;7.00;99.90
59307;DHT22;47983;53.016;-2.260;2023-04-12T12:03:58;7.00;99.90
59307;DHT22;47983;53.016;-2.260;2023-04-12T12:06:27;7.00;99.90
59307;DHT22;47983;53.016;-2.260;2023-04-12T12:08:56;7.00;99.90
59307;DHT22;47983;53.016;-2.260;2023-04-12T12:11:24;7.10;99.90
59307;DHT22;47983;53.016;-2.260;2023-04-12T12:13:54;7.20;99.90
59307;DHT22;47983;53.016;-2.260;2023-04-12T12:16:24;7.20;99.90
59307;DHT22;47983;53.016;-2.260;2023-04-12T12:18:53;7.40;99.90
59307;DHT22;47983;53.016;-2.260;2023-04-12T12:21:21;7.40;99.90
59307;DHT22;47983;53.016;-2.260;2023-04-12T12:23:48;7.70;99.90
59307;DHT22;47983;53.016;-2.260;2023-04-12T12:26:26;7.80;99.90
59307;DHT22;47983;53.016;-2.260;2023-04-12T12:28:56;8.00;99.90
59307;DHT22;47983;53.016;-2.260;2023-04-12T12:31:27;8.00;99.90
59307;DHT22;47983;53.016;-2.260;2023-04-12T12:33:59;7.90;99.90
59307;DHT22;47983;53.016;-2.260;2023-04-12T12:36:35;8.00;99.90
59307;DHT22;47983;53.016;-2.260;2023-04-12T12:39:08;8.00;99.90
59307;DHT22;47983;53.016;-2.260;2023-04-12T12:41:39;8.20;99.90
59307;DHT22;47983;53.016;-2.260;2023-04-12T12:44:07;8.40;99.90
59307;DHT22;47983;53.016;-2.260;2023-04-12T12:46:35;8.50;99.90
59307;DHT22;47983;53.016;-2.260;2023-04-12T12:49:21;8.40;99.90
59307;DHT22;47983;53.016;-2.260;2023-04-12T12:51:52;8.30;99.90
59307;DHT22;47983;53.016;-2.260;2023-04-12T12:54:20;8.40;99.90
59307;DHT22;47983;53.016;-2.260;2023-04-12T12:57:07;8.60;99.90
59307;DHT22;47983;53.016;-2.260;2023-04-12T12:59:35;8.70;99.90
59307;DHT22;47983;53.016;-2.260;2023-04-12T13:02:02;8.80;99.90
59307;DHT22;47983;53.016;-2.260;2023-04-12T13:04:31;8.80;99.90
59307;DHT22;47983;53.016;-2.260;2023-04-12T13:06:59;8.80;99.90
59307;DHT22;47983;53.016;-2.260;2023-04-12T13:09:27;8.50;99.90
59307;DHT22;47983;53.016;-2.260;2023-04-12T13:11:54;8.40;99.90
59307;DHT22;47983;53.016;-2.260;2023-04-12T13:14:23;8.30;99.90
59307;DHT22;47983;53.016;-2.260;2023-04-12T13:16:51;8.20;99.90
59307;DHT22;47983;53.016;-2.260;2023-04-12T13:19:18;8.20;99.90
59307;DHT22;47983;53.016;-2.260;2023-04-12T13:21:46;8.10;99.90
59307;DHT22;47983;53.016;-2.260;2023-04-12T13:26:43;7.70;99.90
59307;DHT22;47983;53.016;-2.260;2023-04-12T13:29:11;7.50;99.90
59307;DHT22;47983;53.016;-2.260;2023-04-12T13:31:38;7.30;99.90
59307;DHT22;47983;53.016;-2.260;2023-04-12T13:34:06;7.10;99.90
59307;DHT22;47983;53.016;-2.260;2023-04-12T13:36:34;6.90;99.90
59307;DHT22;47983;53.016;-2.260;2023-04-12T13:41:30;6.60;99.90
59307;DHT22;47983;53.016;-2.260;2023-04-12T13:43:59;6.50;99.90
59307;DHT22;47983;53.016;-2.260;2023-04-12T13:46:27;6.40;99.90
59307;DHT22;47983;53.016;-2.260;2023-04-12T13:48:55;6.30;99.90
59307;DHT22;47983;53.016;-2.260;2023-04-12T13:51:23;6.30;99.90
59307;DHT22;47983;53.016;-2.260;2023-04-12T13:53:52;6.30;99.90
59307;DHT22;47983;53.016;-2.260;2023-04-12T13:56:20;6.40;99.90
59307;DHT22;47983;53.016;-2.260;2023-04-12T13:58:48;6.50;99.90
59307;DHT22;47983;53.016;-2.260;2023-04-12T14:01:15;6.50;99.90
59307;DHT22;47983;53.016;-2.260;2023-04-12T14:03:43;6.50;99.90
59307;DHT22;47983;53.016;-2.260;2023-04-12T14:06:11;6.50;99.90
59307;DHT22;47983;53.016;-2.260;2023-04-12T14:08:39;6.50;99.90
59307;DHT22;47983;53.016;-2.260;2023-04-12T14:11:06;6.40;99.90
59307;DHT22;47983;53.016;-2.260;2023-04-12T14:13:36;6.30;99.90
59307;DHT22;47983;53.016;-2.260;2023-04-12T14:16:06;6.00;99.90
59307;DHT22;47983;53.016;-2.260;2023-04-12T14:18:34;5.70;99.90
59307;DHT22;47983;53.016;-2.260;2023-04-12T14:21:02;5.60;99.90
59307;DHT22;47983;53.016;-2.260;2023-04-12T14:23:31;5.90;99.90
59307;DHT22;47983;53.016;-2.260;2023-04-12T14:25:58;6.30;99.90
59307;DHT22;47983;53.016;-2.260;2023-04-12T14:28:26;6.40;99.90
59307;DHT22;47983;53.016;-2.260;2023-04-12T14:33:26;7.50;99.90
59307;DHT22;47983;53.016;-2.260;2023-04-12T14:35:54;7.60;99.90
59307;DHT22;47983;53.016;-2.260;2023-04-12T14:38:24;7.80;99.90
59307;DHT22;47983;53.016;-2.260;2023-04-12T14:40:52;7.80;99.90
59307;DHT22;47983;53.016;-2.260;2023-04-12T14:43:20;7.70;99.90
59307;DHT22;47983;53.016;-2.260;2023-04-12T14:45:48;7.40;99.90
59307;DHT22;47983;53.016;-2.260;2023-04-12T14:48:16;7.40;99.90
59307;DHT22;47983;53.016;-2.260;2023-04-12T14:50:43;7.50;99.90
59307;DHT22;47983;53.016;-2.260;2023-04-12T14:53:11;7.70;99.90
59307;DHT22;47983;53.016;-2.260;2023-04-12T14:55:40;7.60;99.90
59307;DHT22;47983;53.016;-2.260;2023-04-12T14:58:07;7.80;99.90
59307;DHT22;47983;53.016;-2.260;2023-04-12T15:00:36;7.90;99.90
59307;DHT22;47983;53.016;-2.260;2023-04-12T15:03:07;8.10;99.90
59307;DHT22;47983;53.016;-2.260;2023-04-12T15:05:35;8.30;99.90
59307;DHT22;47983;53.016;-2.260;2023-04-12T15:08:03;8.30;99.90
59307;DHT22;47983;53.016;-2.260;2023-04-12T15:10:30;8.30;99.90
59307;DHT22;47983;53.016;-2.260;2023-04-12T15:12:58;8.20;99.90
59307;DHT22;47983;53.016;-2.260;2023-04-12T15:15:25;8.20;99.90
59307;DHT22;47983;53.016;-2.260;2023-04-12T15:17:53;8.10;99.90
59307;DHT22;47983;53.016;-2.260;2023-04-12T15:20:21;8.00;99.90
59307;DHT22;47983;53.016;-2.260;2023-04-12T15:22:49;7.90;99.90
59307;DHT22;47983;53.016;-2.260;2023-04-12T15:25:16;7.80;99.90
59307;DHT22;47983;53.016;-2.260;2023-04-12T15:27:44;7.80;99.90
59307;DHT22;47983;53.016;-2.260;2023-04-12T15:30:14;7.70;99.90
59307;DHT22;47983;53.016;-2.260;2023-04-12T15:32:43;7.70;99.90
59307;DHT22;47983;53.016;-2.260;2023-04-12T15:35:13;7.70;99.90
59307;DHT22;47983;53.016;-2.260;2023-04-12T15:37:53;7.60;99.90
59307;DHT22;47983;53.016;-2.260;2023-04-12T15:40:21;8.10;99.90
59307;DHT22;47983;53.016;-2.260;2023-04-12T15:42:49;7.50;99.90
59307;DHT22;47983;53.016;-2.260;2023-04-12T15:45:16;7.50;99.90
59307;DHT22;47983;53.016;-2.260;2023-04-12T15:47:44;7.50;99.90
59307;DHT22;47983;53.016;-2.260;2023-04-12T15:50:12;7.50;99.90
59307;DHT22;47983;53.016;-2.260;2023-04-12T15:52:40;7.50;99.90
59307;DHT22;47983;53.016;-2.260;2023-04-12T15:55:10;7.40;99.90
59307;DHT22;47983;53.016;-2.260;2023-04-12T15:57:38;7.50;99.90
59307;DHT22;47983;53.016;-2.260;2023-04-12T16:00:06;7.50;99.90
59307;DHT22;47983;53.016;-2.260;2023-04-12T16:02:56;7.50;99.90
59307;DHT22;47983;53.016;-2.260;2023-04-12T16:05:24;7.40;99.90
59307;DHT22;47983;53.016;-2.260;2023-04-12T16:07:53;7.40;99.90
59307;DHT22;47983;53.016;-2.260;2023-04-12T16:10:21;7.40;99.90
59307;DHT22;47983;53.016;-2.260;2023-04-12T16:12:50;7.40;99.90
59307;DHT22;47983;53.016;-2.260;2023-04-12T16:15:18;7.40;99.90
59307;DHT22;47983;53.016;-2.260;2023-04-12T16:17:47;7.40;99.90
59307;DHT22;47983;53.016;-2.260;2023-04-12T16:20:15;7.50;99.90
59307;DHT22;47983;53.016;-2.260;2023-04-12T16:22:44;7.80;99.90
59307;DHT22;47983;53.016;-2.260;2023-04-12T16:25:12;7.80;99.90